createdAt,value
2022-10-25T00:13:09.741Z,98.2
2022-10-25T00:27:43.950Z,97.2
2022-10-25T00:42:18.548Z,97.5
2022-10-25T00:56:51.066Z,98
2022-10-25T01:11:25.383Z,98.8
2022-10-25T01:25:58.012Z,98.3
2022-10-25T01:40:29.858Z,97.9
2022-10-25T01:55:04.064Z,98.9
2022-10-25T02:09:37.918Z,99.1
2022-10-25T02:24:17.321Z,100
2022-10-25T02:38:48.366Z,100
2022-10-25T02:53:25.185Z,100
2022-10-25T03:07:57.972Z,100
2022-10-25T03:22:31.499Z,100
2022-10-25T03:37:04.765Z,100
2022-10-25T03:51:36.769Z,100
2022-10-25T04:06:08.915Z,100
2022-10-25T04:20:43.374Z,100
2022-10-25T04:35:17.918Z,100
2022-10-25T04:49:51.317Z,100
2022-10-25T05:04:23.570Z,100
2022-10-25T05:18:58.913Z,100
2022-10-25T05:33:31.240Z,100
2022-10-25T05:48:04.630Z,100
2022-10-25T06:02:39.583Z,100
2022-10-25T06:17:13.350Z,100
2022-10-25T06:31:47.427Z,100
2022-10-25T06:46:21.827Z,100
2022-10-25T07:00:57.447Z,100
2022-10-25T07:15:32.193Z,100
2022-10-25T07:30:05.710Z,100
2022-10-25T07:44:40.488Z,100
2022-10-25T07:59:14.631Z,100
2022-10-25T08:13:49.255Z,100
2022-10-25T08:28:24.346Z,100
2022-10-25T08:42:59.741Z,100
2022-10-25T08:57:33.487Z,100
2022-10-25T09:12:08.507Z,100
2022-10-25T09:26:43.475Z,100
2022-10-25T09:41:18.644Z,100
2022-10-25T09:55:53.412Z,100
2022-10-25T10:10:26.649Z,100
2022-10-25T10:25:01.428Z,100
2022-10-25T10:39:36.059Z,100
2022-10-25T10:54:10.072Z,100
2022-10-25T11:08:46.417Z,100
2022-10-25T11:23:26.097Z,100
2022-10-25T11:38:02.540Z,100
2022-10-25T11:52:33.037Z,95.5
2022-10-25T12:07:06.928Z,96.6
2022-10-25T12:21:41.169Z,93.5
2022-10-25T12:36:15.634Z,85.2
2022-10-25T12:50:49.981Z,84.8
2022-10-25T13:05:26.815Z,83.2
2022-10-25T13:19:59.194Z,81.2
2022-10-25T13:34:32.654Z,79.4
2022-10-25T13:49:06.906Z,80
2022-10-25T14:03:40.655Z,80.1
2022-10-25T14:18:22.517Z,81.3
2022-10-25T14:32:52.127Z,81.2
2022-10-25T14:47:26.762Z,79.8
2022-10-25T15:02:01.331Z,80.8
2022-10-25T15:16:35.096Z,81
2022-10-25T15:31:17.343Z,84.1
2022-10-25T15:45:54.952Z,84.9
2022-10-25T16:00:28.476Z,81.2
2022-10-25T16:14:57.677Z,85.9
2022-10-25T16:29:36.692Z,88.7
2022-10-25T16:44:13.172Z,89.9
2022-10-25T16:58:42.948Z,92.5
2022-10-25T17:13:16.051Z,96.3
2022-10-25T17:27:49.202Z,96
2022-10-25T17:42:23.223Z,93.5
2022-10-25T17:56:57.372Z,94.2
2022-10-25T18:11:29.502Z,95.7
2022-10-25T18:26:03.696Z,98.8
2022-10-25T18:40:37.800Z,100
2022-10-25T18:55:16.097Z,100
2022-10-25T19:09:47.868Z,100
2022-10-25T19:24:15.948Z,100
2022-10-25T19:38:50.167Z,100
2022-10-25T19:53:27.549Z,100
2022-10-25T20:08:02.392Z,100
2022-10-25T20:22:32.969Z,100
2022-10-25T20:37:05.079Z,100
2022-10-25T20:51:37.419Z,100
2022-10-25T21:06:10.433Z,100
2022-10-25T21:20:44.325Z,100
2022-10-25T21:35:20.076Z,100
2022-10-25T21:49:53.056Z,100
2022-10-25T22:04:25.730Z,100
2022-10-25T22:19:00.035Z,100
2022-10-25T22:33:35.292Z,100
2022-10-25T22:48:08.986Z,100
2022-10-25T23:02:43.756Z,100
2022-10-25T23:17:17.230Z,100
2022-10-25T23:31:51.616Z,100
2022-10-25T23:46:24.522Z,100
